Time;durP1;ratioP1;P1;durP2;ratioP2;P2;SDS_P1;SDS_P2;PMS_P1;PMS_P2;Temp;Humidity;BMP_temperature;BMP_pressure;BME280_temperature;BME280_humidity;BME280_pressure;Samples;Min_cycle;Max_cycle;Signal;HPM_P1;HPM_P2
2022/03/08 00:00:44;;;;;;;6.65;5.85;;;;;;;-1.21;73.95;102140.91;2107337;28;20027;-61
2022/03/08 00:01:44;;;;;;;9.23;5.25;;;;;;;-1.25;74.48;102139.97;2107358;28;20031;-61
2022/03/08 00:02:45;;;;;;;8.30;5.70;;;;;;;-1.32;74.80;102138.06;2107342;28;20016;-62
2022/03/08 00:03:45;;;;;;;6.78;4.32;;;;;;;-1.37;74.83;102135.38;2107309;28;20082;-62
2022/03/08 00:04:45;;;;;;;6.93;5.03;;;;;;;-1.42;74.58;102139.50;2107337;28;20125;-62
2022/03/08 00:05:45;;;;;;;8.10;5.73;;;;;;;-1.48;75.64;102139.31;2107282;28;20083;-61
2022/03/08 00:06:46;;;;;;;6.97;4.90;;;;;;;-1.57;75.68;102135.66;2106550;28;20020;-61
2022/03/08 00:07:47;;;;;;;8.67;5.73;;;;;;;-1.63;76.36;102143.19;2106745;28;20028;-61
2022/03/08 00:08:47;;;;;;;6.43;4.68;;;;;;;-1.66;76.94;102135.41;2107177;28;20044;-61
2022/03/08 00:09:47;;;;;;;8.40;6.20;;;;;;;-1.70;76.85;102138.69;2107226;28;20027;-61
2022/03/08 00:10:47;;;;;;;9.43;5.80;;;;;;;-1.74;77.57;102135.16;2106045;28;20028;-61
2022/03/08 00:11:48;;;;;;;7.83;5.30;;;;;;;-1.79;77.94;102133.31;2106541;28;20031;-61
2022/03/08 00:12:49;;;;;;;11.30;4.77;;;;;;;-1.82;78.24;102137.50;2106687;28;20031;-61
2022/03/08 00:13:52;;;;;;;8.93;5.45;;;;;;;-1.86;78.44;102135.69;2107346;28;20466;-62
2022/03/08 00:14:52;;;;;;;6.72;4.97;;;;;;;-1.88;78.45;102132.19;2107162;28;20027;-61
2022/03/08 00:15:53;;;;;;;7.20;5.00;;;;;;;-1.89;78.91;102130.47;2107187;28;20024;-61
2022/03/08 00:16:54;;;;;;;7.00;5.28;;;;;;;-1.86;79.02;102129.69;2107227;28;20115;-61
2022/03/08 00:17:56;;;;;;;8.23;6.00;;;;;;;-1.87;78.98;102130.50;2107140;28;20512;-62
2022/03/08 00:18:56;;;;;;;6.82;4.95;;;;;;;-1.88;79.64;102132.19;2107164;28;20031;-61
2022/03/08 00:19:56;;;;;;;8.10;4.73;;;;;;;-1.90;79.86;102133.84;2107176;28;20396;-61
2022/03/08 00:20:56;;;;;;;8.40;4.97;;;;;;;-1.94;80.04;102132.03;2107136;28;20036;-61
2022/03/08 00:21:57;;;;;;;9.03;5.13;;;;;;;-1.94;79.65;102126.91;2107187;28;20107;-62
2022/03/08 00:22:58;;;;;;;9.43;5.83;;;;;;;-1.96;79.30;102133.66;2107107;28;20481;-61
2022/03/08 00:23:58;;;;;;;9.45;5.38;;;;;;;-1.95;79.85;102135.41;2107089;28;20427;-61
2022/03/08 00:25:01;;;;;;;7.33;4.97;;;;;;;-1.96;79.74;102128.53;2107116;28;20020;-61
2022/03/08 00:26:01;;;;;;;7.60;4.93;;;;;;;-1.93;79.80;102128.63;2107120;28;20111;-61
2022/03/08 00:27:02;;;;;;;7.53;5.10;;;;;;;-1.90;79.47;102128.72;2107138;28;20023;-61
2022/03/08 00:28:02;;;;;;;7.00;5.27;;;;;;;-1.86;79.07;102129.69;2107124;28;20119;-62
2022/03/08 00:29:02;;;;;;;9.53;5.97;;;;;;;-1.87;79.27;102128.84;2107100;28;20107;-61
2022/03/08 00:30:06;;;;;;;11.00;5.77;;;;;;;-1.86;78.92;102128.00;2107111;28;20361;-61
2022/03/08 00:31:07;;;;;;;8.88;5.80;;;;;;;-1.83;78.91;102127.22;2107176;28;20505;-61
2022/03/08 00:32:08;;;;;;;10.98;5.43;;;;;;;-1.76;78.46;102130.81;2107049;28;20027;-60
2022/03/08 00:33:08;;;;;;;5.80;4.88;;;;;;;-1.69;78.13;102128.50;2107005;28;20056;-62
2022/03/08 00:34:08;;;;;;;5.43;4.67;;;;;;;-1.65;77.50;102126.88;2107162;28;20031;-61
2022/03/08 00:35:09;;;;;;;8.70;5.13;;;;;;;-1.58;77.52;102123.69;2107009;28;20111;-61
2022/03/08 00:36:09;;;;;;;6.63;4.75;;;;;;;-1.57;77.46;102117.75;2107024;28;20035;-61
2022/03/08 00:37:10;;;;;;;8.03;5.03;;;;;;;-1.53;76.73;102128.06;2107093;28;20102;-62
2022/03/08 00:38:10;;;;;;;8.57;5.13;;;;;;;-1.37;75.49;102121.72;2107019;28;20097;-61
2022/03/08 00:39:10;;;;;;;8.13;5.93;;;;;;;-1.26;75.08;102122.88;2106439;28;20035;-61
2022/03/08 00:40:11;;;;;;;7.07;4.33;;;;;;;-1.21;74.31;102120.41;2106383;28;20111;-61
2022/03/08 00:41:11;;;;;;;7.80;5.25;;;;;;;-1.19;74.84;102121.34;2106488;28;20074;-61
2022/03/08 00:42:12;;;;;;;7.07;5.20;;;;;;;-1.22;74.30;102123.81;2107029;28;20016;-62
2022/03/08 00:43:12;;;;;;;6.30;4.60;;;;;;;-1.22;74.04;102119.56;2106345;28;20048;-61
2022/03/08 00:44:12;;;;;;;8.53;4.73;;;;;;;-1.28;74.23;102128.75;2106443;28;20099;-61
2022/03/08 00:45:14;;;;;;;8.77;5.10;;;;;;;-1.34;74.57;102125.22;2106887;28;20372;-62
2022/03/08 00:46:15;;;;;;;7.88;4.70;;;;;;;-1.30;74.29;102127.03;2107170;28;20074;-62
2022/03/08 00:47:15;;;;;;;8.80;5.45;;;;;;;-1.20;73.77;102124.75;2107003;28;20031;-61
2022/03/08 00:48:16;;;;;;;6.30;4.97;;;;;;;-1.13;73.38;102121.50;2106955;28;20109;-62
2022/03/08 00:49:16;;;;;;;8.23;5.40;;;;;;;-1.12;73.01;102125.81;2106935;28;20036;-62
2022/03/08 00:50:21;;;;;;;7.23;4.90;;;;;;;-1.18;73.54;102120.50;2106962;28;20055;-61
2022/03/08 00:51:23;;;;;;;7.22;5.22;;;;;;;-1.15;72.95;102119.72;2106941;28;20020;-62
2022/03/08 00:52:23;;;;;;;7.78;4.93;;;;;;;-1.07;72.40;102125.91;2106199;28;20035;-61
2022/03/08 00:53:23;;;;;;;5.50;4.03;;;;;;;-1.00;72.22;102119.28;2106346;28;20387;-60
2022/03/08 00:54:24;;;;;;;7.87;5.03;;;;;;;-0.98;72.55;102122.72;2106887;28;20018;-61
2022/03/08 00:55:27;;;;;;;5.67;4.57;;;;;;;-1.00;72.21;102116.72;2106971;28;20035;-62
2022/03/08 00:56:27;;;;;;;7.07;4.50;;;;;;;-1.10;72.45;102113.88;2106936;28;20372;-61
2022/03/08 00:57:28;;;;;;;8.53;5.00;;;;;;;-1.16;72.65;102116.31;2106792;28;20024;-61
2022/03/08 00:58:28;;;;;;;5.63;4.60;;;;;;;-1.22;72.92;102118.69;2106896;28;20018;-61
2022/03/08 00:59:28;;;;;;;7.93;6.30;;;;;;;-1.21;72.30;102117.84;2106935;28;20016;-61
2022/03/08 01:00:31;;;;;;;9.53;5.07;;;;;;;-1.13;72.27;102123.19;2106915;28;20095;-60
2022/03/08 01:01:31;;;;;;;6.68;4.53;;;;;;;-0.93;71.01;102116.03;2106914;28;20031;-61
2022/03/08 01:02:31;;;;;;;8.43;4.57;;;;;;;-0.76;69.95;102116.47;2106974;28;20051;-61
2022/03/08 01:03:32;;;;;;;9.53;4.93;;;;;;;-0.71;70.13;102117.47;2106907;28;20036;-61
2022/03/08 01:04:32;;;;;;;8.27;5.63;;;;;;;-0.70;69.97;102115.75;2106166;28;20046;-61
2022/03/08 01:05:33;;;;;;;6.80;5.27;;;;;;;-0.65;69.86;102121.88;2106261;28;20164;-61
2022/03/08 01:06:33;;;;;;;6.45;5.10;;;;;;;-0.54;69.52;102125.56;2106874;28;20076;-61
2022/03/08 01:07:34;;;;;;;7.47;4.63;;;;;;;-0.56;69.35;102121.22;2106892;28;20518;-61
2022/03/08 01:08:34;;;;;;;7.35;5.07;;;;;;;-0.68;69.92;102116.66;2106983;28;20381;-61
2022/03/08 01:09:35;;;;;;;8.03;4.13;;;;;;;-0.81;70.05;102115.50;2106768;28;20027;-60
2022/03/08 01:10:36;;;;;;;8.93;5.30;;;;;;;-0.76;69.89;102113.91;2106872;28;20366;-62
2022/03/08 01:11:36;;;;;;;7.57;5.03;;;;;;;-0.72;69.80;102117.44;2106839;28;20388;-61
2022/03/08 01:12:37;;;;;;;6.57;5.88;;;;;;;-0.68;69.07;102116.66;2106076;28;20032;-61
2022/03/08 01:13:38;;;;;;;8.23;5.50;;;;;;;-0.63;69.30;102117.66;2106223;28;20055;-61
2022/03/08 01:14:38;;;;;;;13.20;5.72;;;;;;;-0.54;68.11;102115.28;2106860;28;20031;-61
2022/03/08 01:15:38;;;;;;;6.33;4.40;;;;;;;-0.45;68.40;102113.81;2106799;28;20490;-61
2022/03/08 01:16:39;;;;;;;12.03;5.30;;;;;;;-0.46;68.38;102109.47;2106820;28;20460;-62
2022/03/08 01:17:39;;;;;;;9.03;5.23;;;;;;;-0.49;68.55;102117.97;2106750;28;20034;-62
2022/03/08 01:18:40;;;;;;;9.00;5.00;;;;;;;-0.56;68.72;102111.84;2106853;28;20016;-61
2022/03/08 01:19:40;;;;;;;6.47;4.77;;;;;;;-0.56;68.32;102122.09;2106717;28;20024;-60
2022/03/08 01:20:40;;;;;;;7.50;5.33;;;;;;;-0.57;67.89;102120.38;2106165;28;20019;-61
2022/03/08 01:21:41;;;;;;;5.93;4.03;;;;;;;-0.60;68.13;102120.28;2105736;28;20084;-61
2022/03/08 01:22:42;;;;;;;6.93;5.53;;;;;;;-0.58;68.23;102118.63;2106176;28;20048;-61
2022/03/08 01:23:43;;;;;;;6.68;4.38;;;;;;;-0.49;67.59;102117.09;2106728;28;20024;-62
2022/03/08 01:24:43;;;;;;;8.07;4.97;;;;;;;-0.47;67.54;102112.88;2106033;28;20026;-61
2022/03/08 01:25:43;;;;;;;8.20;4.73;;;;;;;-0.38;66.82;102113.09;2106226;28;20099;-62
2022/03/08 01:26:44;;;;;;;7.10;5.07;;;;;;;-0.28;67.28;102112.50;2106733;28;20024;-61
2022/03/08 01:27:44;;;;;;;8.30;5.20;;;;;;;-0.27;66.79;102109.09;2106716;28;20032;-62
2022/03/08 01:28:44;;;;;;;8.30;4.90;;;;;;;-0.28;66.76;102106.47;2106036;28;20063;-62
2022/03/08 01:29:44;;;;;;;7.37;4.83;;;;;;;-0.35;67.24;102115.75;2106098;28;20099;-62
2022/03/08 01:30:46;;;;;;;7.23;4.90;;;;;;;-0.46;67.70;102101.78;2106736;28;20386;-61
2022/03/08 01:31:46;;;;;;;10.13;5.75;;;;;;;-0.43;67.27;102107.88;2106627;28;20034;-61
2022/03/08 01:32:47;;;;;;;7.00;4.63;;;;;;;-0.36;66.80;102103.75;2106734;28;20032;-61
2022/03/08 01:33:49;;;;;;;9.15;5.35;;;;;;;-0.37;67.26;102107.16;2106607;28;20032;-61
2022/03/08 01:34:49;;;;;;;6.32;4.75;;;;;;;-0.46;68.05;102105.22;2106678;28;20069;-62
2022/03/08 01:35:50;;;;;;;8.03;4.53;;;;;;;-0.56;67.80;102111.84;2106754;28;20051;-62
2022/03/08 01:36:50;;;;;;;7.47;5.17;;;;;;;-0.67;68.63;102108.13;2106710;28;20024;-60
2022/03/08 01:37:51;;;;;;;12.47;5.40;;;;;;;-0.76;69.03;102105.34;2106770;28;20028;-60
2022/03/08 01:38:52;;;;;;;8.77;5.10;;;;;;;-0.78;68.99;102102.75;2106702;28;20433;-62
2022/03/08 01:39:52;;;;;;;8.53;5.40;;;;;;;-0.82;69.68;102098.38;2106037;28;20031;-61
2022/03/08 01:40:53;;;;;;;8.33;5.87;;;;;;;-0.78;69.28;102102.75;2106151;28;20035;-60
2022/03/08 01:41:53;;;;;;;7.82;4.72;;;;;;;-0.68;68.41;102101.28;2106637;28;20027;-61
2022/03/08 01:42:53;;;;;;;7.27;5.27;;;;;;;-0.71;69.07;102098.63;2106763;28;20107;-61
2022/03/08 01:43:54;;;;;;;7.93;4.73;;;;;;;-0.80;68.97;102096.69;2106675;28;20031;-60
2022/03/08 01:44:55;;;;;;;8.90;5.50;;;;;;;-0.72;68.55;102094.34;2106703;28;20054;-60
2022/03/08 01:45:55;;;;;;;7.97;5.07;;;;;;;-0.63;68.17;102096.25;2106535;28;20026;-61
2022/03/08 01:46:55;;;;;;;9.53;5.07;;;;;;;-0.54;68.00;102088.78;2106685;28;20095;-60
2022/03/08 01:47:55;;;;;;;8.40;5.87;;;;;;;-0.55;67.76;102087.91;2106657;28;20510;-61
2022/03/08 01:48:56;;;;;;;6.17;4.93;;;;;;;-0.56;67.69;102086.19;2105861;28;20044;-60
2022/03/08 01:49:56;;;;;;;6.83;4.70;;;;;;;-0.57;67.79;102079.34;2106043;28;20036;-61
2022/03/08 01:50:56;;;;;;;7.47;4.57;;;;;;;-0.58;67.85;102084.44;2106723;28;20485;-61
2022/03/08 01:51:57;;;;;;;6.47;4.77;;;;;;;-0.38;nan;102082.31;2106683;28;20031;-61
2022/03/08 01:52:57;;;;;;;8.80;4.93;;;;;;;-0.48;67.39;102083.78;2106701;28;20086;-60
2022/03/08 01:53:58;;;;;;;8.60;5.27;;;;;;;-0.57;68.11;102083.59;2106663;28;20111;-61
2022/03/08 01:54:58;;;;;;;7.07;5.67;;;;;;;-0.55;67.63;102082.78;2106712;28;20034;-61
2022/03/08 01:55:58;;;;;;;8.13;5.23;;;;;;;-0.56;67.85;102081.06;2106707;28;20024;-61
2022/03/08 01:56:59;;;;;;;7.07;5.07;;;;;;;-0.61;68.00;102076.66;2105998;28;20016;-59
2022/03/08 01:58:00;;;;;;;6.60;4.83;;;;;;;-0.61;68.10;102077.53;2105935;28;20121;-61
2022/03/08 01:59:01;;;;;;;7.90;4.47;;;;;;;-0.64;68.39;102074.88;2106068;28;20473;-59
2022/03/08 02:00:06;;;;;;;8.27;5.00;;;;;;;-0.70;68.49;102073.03;2106650;28;20028;-60
2022/03/08 02:01:07;;;;;;;8.02;5.30;;;;;;;-0.66;68.13;102074.84;2106576;28;20023;-61
2022/03/08 02:02:08;;;;;;;9.48;5.60;;;;;;;-0.66;68.51;102072.28;2106543;28;20108;-60
2022/03/08 02:03:08;;;;;;;7.55;4.80;;;;;;;-0.63;67.97;102061.22;2106562;28;20035;-60
2022/03/08 02:04:09;;;;;;;6.90;5.17;;;;;;;-0.48;67.04;102068.41;2106631;28;20031;-61
2022/03/08 02:05:10;;;;;;;7.43;5.40;;;;;;;-0.40;67.32;102074.56;2105934;28;20024;-60
2022/03/08 02:06:10;;;;;;;;;;;;;;;-0.47;67.08;102069.28;2106406;28;20020;-61
2022/03/08 02:07:11;;;;;;;6.53;5.00;;;;;;;-0.52;67.81;102072.63;2106628;28;19908;-61
2022/03/08 02:08:13;;;;;;;9.68;6.03;;;;;;;-0.52;67.06;102067.47;2106635;28;20152;-60
2022/03/08 02:09:13;;;;;;;7.13;4.90;;;;;;;-0.55;68.05;102067.41;2106023;28;20024;-61
2022/03/08 02:10:14;;;;;;;6.90;5.03;;;;;;;-0.55;67.77;102069.97;2097532;28;20108;-60
2022/03/08 02:11:15;;;;;;;10.30;6.70;;;;;;;-0.46;66.83;102056.50;2106125;28;20103;-61
2022/03/08 02:12:15;;;;;;;8.57;5.40;;;;;;;-0.32;66.70;102064.50;2106519;28;20385;-62
2022/03/08 02:13:15;;;;;;;7.77;5.70;;;;;;;-0.39;67.14;102062.63;2106580;28;20051;-61
2022/03/08 02:14:16;;;;;;;8.00;4.90;;;;;;;-0.38;66.64;102060.94;2106582;28;20051;-61
2022/03/08 02:15:28;;;;;;;7.38;5.40;;;;;;;-0.43;66.63;102053.13;2106468;28;20020;-61
2022/03/08 02:16:29;;;;;;;7.53;5.57;;;;;;;-0.47;67.32;102059.03;2106561;28;20020;-61
2022/03/08 02:17:30;;;;;;;9.00;5.30;;;;;;;-0.56;67.63;102057.97;2106572;28;20061;-61
2022/03/08 02:18:30;;;;;;;8.20;5.23;;;;;;;-0.59;67.58;102054.47;2106590;28;20334;-61
2022/03/08 02:19:30;;;;;;;8.03;5.30;;;;;;;-0.65;67.88;102050.94;2106518;28;20022;-61
2022/03/08 02:20:31;;;;;;;7.50;5.37;;;;;;;-0.75;68.34;102053.25;2106521;28;20450;-60
2022/03/08 02:21:35;;;;;;;8.27;5.33;;;;;;;-0.69;68.50;102059.38;2106567;28;20025;-60
2022/03/08 02:22:35;;;;;;;8.80;5.95;;;;;;;-0.67;67.61;102046.59;2106445;28;20027;-60
2022/03/08 02:23:35;;;;;;;8.88;5.57;;;;;;;-0.68;68.01;102050.84;2106530;28;20485;-61
2022/03/08 02:24:36;;;;;;;8.20;5.10;;;;;;;-0.67;68.04;102056.84;2106523;28;20020;-61
2022/03/08 02:25:36;;;;;;;7.27;5.30;;;;;;;-0.69;68.34;102055.94;2106521;28;20397;-61
2022/03/08 02:26:37;;;;;;;7.97;4.93;;;;;;;-0.75;68.29;102043.88;2106536;28;20457;-61
2022/03/08 02:27:41;;;;;;;8.43;5.78;;;;;;;-0.73;68.21;102054.13;2106491;28;20047;-60
2022/03/08 02:28:41;;;;;;;7.72;5.63;;;;;;;-0.68;67.58;102048.28;2106507;28;20543;-61
2022/03/08 02:29:42;;;;;;;8.40;5.57;;;;;;;-0.59;67.79;102055.34;2106523;28;20028;-60
2022/03/08 02:30:42;;;;;;;11.07;6.20;;;;;;;-0.56;67.19;102054.53;2106511;28;20058;-61
2022/03/08 02:31:42;;;;;;;9.43;5.47;;;;;;;-0.65;68.31;102060.34;2106437;28;20020;-61
2022/03/08 02:32:44;;;;;;;5.57;4.77;;;;;;;-0.80;68.69;102050.56;2106462;28;20024;-60
2022/03/08 02:33:44;;;;;;;8.57;5.90;;;;;;;-0.85;68.59;102054.72;2107129;28;20038;-61
2022/03/08 02:34:45;;;;;;;8.60;5.38;;;;;;;-0.81;68.40;102048.84;2108094;28;20465;-61
2022/03/08 02:35:45;;;;;;;9.70;6.20;;;;;;;-0.73;67.74;102041.31;2108122;28;20047;-61
2022/03/08 02:37:04;;;;;;;8.23;6.10;;;;;;;-0.59;67.74;102054.47;2108135;28;20065;-62
2022/03/08 02:38:06;;;;;;;6.07;4.50;;;;;;;-0.70;68.96;102046.53;2107962;28;20027;-61
2022/03/08 02:39:07;;;;;;;8.20;4.88;;;;;;;-0.85;69.56;102049.59;2107963;28;20031;-62
2022/03/08 02:40:09;;;;;;;7.78;5.70;;;;;;;-0.93;69.28;102046.81;2108043;28;20036;-60
2022/03/08 02:41:09;;;;;;;8.38;5.20;;;;;;;-0.92;69.01;102046.88;2107284;28;20020;-61
2022/03/08 02:42:10;;;;;;;8.77;6.10;;;;;;;-0.71;68.14;102040.56;2107397;28;20020;-61
2022/03/08 02:43:11;;;;;;;7.40;5.47;;;;;;;-0.70;68.05;102036.28;2107955;28;20497;-61
2022/03/08 02:44:13;;;;;;;7.70;5.65;;;;;;;-0.71;68.32;102029.41;2108014;28;20028;-60
2022/03/08 02:45:14;;;;;;;7.80;5.43;;;;;;;-0.70;67.97;102036.28;2107957;28;20027;-61
2022/03/08 02:46:14;;;;;;;7.88;5.43;;;;;;;-0.72;68.50;102032.81;2108042;28;20055;-60
2022/03/08 02:47:14;;;;;;;8.07;5.03;;;;;;;-0.79;68.52;102037.78;2107840;28;20020;-62
2022/03/08 02:48:15;;;;;;;9.47;5.47;;;;;;;-0.80;68.41;102030.94;2107747;28;20024;-62
2022/03/08 02:49:15;;;;;;;8.80;6.13;;;;;;;-0.85;68.72;102032.53;2107907;28;20020;-61
2022/03/08 02:50:16;;;;;;;7.90;5.53;;;;;;;-0.82;68.48;102031.72;2107923;28;20030;-61
2022/03/08 02:51:17;;;;;;;7.40;5.25;;;;;;;-0.80;68.21;102024.91;2107940;28;20035;-61
2022/03/08 02:52:17;;;;;;;7.20;4.95;;;;;;;-0.83;68.90;102025.72;2107137;28;20111;-60
2022/03/08 02:53:18;;;;;;;7.60;5.30;;;;;;;-0.90;69.16;102028.97;2107377;28;20024;-60
2022/03/08 02:54:18;;;;;;;7.00;5.27;;;;;;;-0.87;68.33;102030.72;2107882;28;20031;-59
2022/03/08 02:55:21;;;;;;;7.80;6.30;;;;;;;-0.90;68.67;102023.84;2107890;28;20469;-60
2022/03/08 02:56:22;;;;;;;6.82;5.28;;;;;;;-0.96;69.39;102033.97;2107894;28;20031;-60
2022/03/08 02:57:22;;;;;;;7.83;5.70;;;;;;;-0.99;69.72;102023.63;2107167;28;20062;-60
2022/03/08 02:58:23;;;;;;;8.97;5.33;;;;;;;-1.07;69.70;102025.97;2098752;28;20059;-60
2022/03/08 02:59:24;;;;;;;8.48;5.97;;;;;;;-1.04;69.33;102024.38;2107195;28;20024;-61
2022/03/08 03:00:26;;;;;;;8.23;4.93;;;;;;;-0.99;69.41;102021.06;2107264;28;20051;-60
2022/03/08 03:01:26;;;;;;;8.30;5.60;;;;;;;-1.06;69.78;102012.34;2107312;28;20074;-60
2022/03/08 03:02:26;;;;;;;6.87;5.57;;;;;;;-1.16;70.06;102016.38;2107196;28;20469;-62
2022/03/08 03:03:27;;;;;;;7.43;5.13;;;;;;;-1.27;70.68;102012.69;2107205;28;20016;-60
2022/03/08 03:04:27;;;;;;;7.07;5.27;;;;;;;-1.26;70.81;102017.84;2107790;28;20081;-60
2022/03/08 03:05:27;;;;;;;7.90;4.67;;;;;;;-1.22;70.67;102011.97;2107770;28;20020;-60
2022/03/08 03:06:28;;;;;;;6.57;4.73;;;;;;;-1.27;71.19;102012.69;2107819;28;20048;-60
2022/03/08 03:07:28;;;;;;;7.40;5.27;;;;;;;-1.35;71.79;102010.78;2107761;28;20124;-61
2022/03/08 03:08:28;;;;;;;7.73;5.20;;;;;;;-1.40;71.98;102007.25;2107770;28;20388;-61
2022/03/08 03:09:28;;;;;;;8.47;4.90;;;;;;;-1.41;71.79;102008.03;2107808;28;20043;-60
2022/03/08 03:10:29;;;;;;;8.00;5.10;;;;;;;-1.48;72.14;102006.16;2107790;28;20051;-60
2022/03/08 03:11:29;;;;;;;7.00;5.13;;;;;;;-1.54;72.27;102003.44;2107635;28;20027;-61
2022/03/08 03:12:29;;;;;;;7.77;4.97;;;;;;;-1.58;72.27;101997.34;2107739;28;20020;-61
2022/03/08 03:13:30;;;;;;;10.20;5.23;;;;;;;-1.58;72.55;102003.34;2107824;28;20048;-60
2022/03/08 03:14:30;;;;;;;8.00;5.03;;;;;;;-1.57;72.46;101994.84;2107738;28;20039;-60
2022/03/08 03:15:30;;;;;;;6.73;4.83;;;;;;;-1.62;72.39;102001.53;2107804;28;20065;-60
2022/03/08 03:16:31;;;;;;;6.38;4.75;;;;;;;-1.73;72.74;102010.63;2106968;28;20053;-60
2022/03/08 03:17:31;;;;;;;7.83;5.27;;;;;;;-1.73;73.30;101997.81;2107130;28;20473;-60
2022/03/08 03:18:31;;;;;;;6.10;4.17;;;;;;;-1.75;73.22;102000.34;2107687;28;20534;-60
2022/03/08 03:19:31;;;;;;;7.27;5.03;;;;;;;-1.79;73.79;101992.53;2107691;28;20076;-59
2022/03/08 03:20:32;;;;;;;8.87;7.03;;;;;;;-1.85;73.98;101999.22;2107711;28;20445;-60
2022/03/08 03:21:32;;;;;;;7.10;4.67;;;;;;;-1.92;73.94;101997.28;2107757;28;20026;-60
2022/03/08 03:22:33;;;;;;;7.85;5.30;;;;;;;-1.99;74.08;101997.97;2107725;28;20020;-61
2022/03/08 03:23:33;;;;;;;6.53;4.88;;;;;;;-2.05;74.36;101991.00;2107053;28;20062;-61
2022/03/08 03:24:34;;;;;;;4.77;3.97;;;;;;;-2.05;74.43;101991.00;2106990;28;20020;-60
2022/03/08 03:25:34;;;;;;;7.37;5.07;;;;;;;-1.99;74.73;101996.25;2107703;28;20058;-60
2022/03/08 03:26:34;;;;;;;6.40;4.97;;;;;;;-1.87;73.93;101994.88;2106977;28;20023;-60
2022/03/08 03:27:35;;;;;;;5.93;4.30;;;;;;;-1.81;73.98;101987.38;2107018;28;20020;-60
2022/03/08 03:28:36;;;;;;;8.65;6.40;;;;;;;-1.79;73.98;101992.53;2107671;28;20020;-61
2022/03/08 03:29:36;;;;;;;5.83;4.37;;;;;;;-1.86;73.58;101987.25;2107847;28;20051;-61
2022/03/08 03:30:36;;;;;;;6.17;4.00;;;;;;;-1.94;74.12;101988.72;2106924;28;20028;-60
2022/03/08 03:31:36;;;;;;;6.97;5.33;;;;;;;-1.90;74.59;101980.31;2106943;28;20464;-59
2022/03/08 03:32:37;;;;;;;6.83;4.53;;;;;;;-1.91;73.83;101981.16;2106952;28;20103;-61
2022/03/08 03:33:37;;;;;;;8.57;4.88;;;;;;;-1.95;74.08;101974.22;2107653;28;20111;-61
2022/03/08 03:34:37;;;;;;;8.77;5.00;;;;;;;-1.93;74.47;101975.09;2107583;28;20023;-60
2022/03/08 03:35:38;;;;;;;7.13;5.43;;;;;;;-1.83;73.86;101971.97;2107548;28;20035;-60
2022/03/08 03:36:38;;;;;;;8.63;5.73;;;;;;;-1.73;73.45;101972.22;2107571;28;20024;-60
2022/03/08 03:37:39;;;;;;;8.60;5.17;;;;;;;-1.67;73.07;101971.53;2106826;28;20456;-60
2022/03/08 03:38:39;;;;;;;9.67;5.00;;;;;;;-1.69;72.72;101972.34;2106889;28;20294;-60
2022/03/08 03:39:39;;;;;;;7.20;5.47;;;;;;;-1.70;72.56;101973.19;2107541;28;20024;-60
2022/03/08 03:40:40;;;;;;;8.47;5.53;;;;;;;-1.76;73.18;101974.69;2107550;28;20077;-61
2022/03/08 03:41:40;;;;;;;11.03;5.93;;;;;;;-1.88;73.90;101970.97;2107462;28;20060;-61
2022/03/08 03:42:41;;;;;;;8.83;6.00;;;;;;;-2.03;74.60;101979.09;2107464;28;20085;-60
2022/03/08 03:43:41;;;;;;;7.13;4.68;;;;;;;-2.20;75.36;101976.94;2107395;28;20496;-61
2022/03/08 03:44:41;;;;;;;8.20;5.20;;;;;;;-2.18;75.62;101971.84;2107146;28;20026;-60
2022/03/08 03:45:42;;;;;;;5.50;4.83;;;;;;;-2.10;75.22;101972.94;2106841;28;20110;-60
2022/03/08 03:46:42;;;;;;;5.93;5.00;;;;;;;-2.09;75.99;101979.78;2106751;28;20031;-60
2022/03/08 03:47:42;;;;;;;8.33;6.50;;;;;;;-1.96;74.95;101969.88;2106788;28;20512;-60
2022/03/08 03:48:43;;;;;;;10.10;5.73;;;;;;;-1.83;74.34;101977.09;2107319;28;20059;-60
2022/03/08 03:49:43;;;;;;;6.47;4.63;;;;;;;-1.76;73.96;101977.25;2107520;28;20472;-60
2022/03/08 03:50:43;;;;;;;7.30;5.23;;;;;;;-1.82;74.45;101973.72;2107440;28;20027;-60
2022/03/08 03:51:46;;;;;;;7.03;4.67;;;;;;;-1.92;74.95;101976.81;2107334;28;20127;-60
2022/03/08 03:52:46;;;;;;;7.45;5.22;;;;;;;-2.02;75.54;101979.97;2107320;28;20024;-60
2022/03/08 03:53:46;;;;;;;7.13;5.50;;;;;;;-2.07;75.41;101978.16;2106685;28;20023;-61
2022/03/08 03:54:46;;;;;;;9.50;5.90;;;;;;;-1.99;74.82;101972.38;2106778;28;20028;-60
2022/03/08 03:55:47;;;;;;;6.77;4.77;;;;;;;-1.98;75.47;101979.22;2107341;28;20039;-61
2022/03/08 03:56:47;;;;;;;7.20;5.80;;;;;;;-2.00;75.00;101978.31;2107379;28;20024;-60
2022/03/08 03:57:47;;;;;;;7.97;5.60;;;;;;;-2.00;75.34;101978.31;2107308;28;20026;-60
2022/03/08 03:58:47;;;;;;;7.63;5.57;;;;;;;-2.04;75.57;101982.47;2107527;28;20092;-60
2022/03/08 03:59:48;;;;;;;6.90;5.07;;;;;;;-2.10;75.96;101982.28;2107321;28;20077;-61
2022/03/08 04:00:48;;;;;;;8.13;4.63;;;;;;;-2.12;76.13;101978.84;2106681;28;20048;-61
2022/03/08 04:01:48;;;;;;;7.70;5.53;;;;;;;-2.15;76.55;101979.63;2106670;28;20023;-60
2022/03/08 04:02:49;;;;;;;7.57;5.47;;;;;;;-2.16;76.75;101977.03;2107331;28;20016;-61
2022/03/08 04:03:49;;;;;;;7.07;5.40;;;;;;;-2.13;76.58;101980.53;2107280;28;20042;-61
2022/03/08 04:04:49;;;;;;;8.30;4.90;;;;;;;-2.12;76.11;101979.69;2107324;28;20052;-60
2022/03/08 04:05:49;;;;;;;7.07;5.10;;;;;;;-2.08;75.67;101978.94;2107269;28;20477;-60
2022/03/08 04:06:50;;;;;;;9.20;5.67;;;;;;;-2.03;75.41;101973.09;2107265;28;20550;-60
2022/03/08 04:07:50;;;;;;;8.47;5.73;;;;;;;-1.97;74.91;101968.16;2107231;28;20400;-60
2022/03/08 04:08:50;;;;;;;12.23;5.83;;;;;;;-1.88;74.83;101972.69;2107243;28;20103;-60
2022/03/08 04:09:51;;;;;;;7.73;5.57;;;;;;;-1.85;74.84;101970.22;2107186;28;20031;-60
2022/03/08 04:10:51;;;;;;;9.10;5.87;;;;;;;-1.72;73.70;101969.69;2107181;28;20492;-60
2022/03/08 04:11:51;;;;;;;7.10;6.13;;;;;;;-1.65;73.29;101969.88;2107091;28;20024;-60
2022/03/08 04:12:51;;;;;;;7.53;5.07;;;;;;;-1.66;73.34;101969.00;2107191;28;20028;-60
2022/03/08 04:13:52;;;;;;;7.93;5.50;;;;;;;-1.66;73.38;101965.56;2107210;28;20020;-61
2022/03/08 04:14:52;;;;;;;6.80;5.43;;;;;;;-1.71;73.28;101968.03;2107263;28;20106;-60
2022/03/08 04:15:52;;;;;;;7.70;5.83;;;;;;;-1.73;73.82;101967.09;2107222;28;20047;-60
2022/03/08 04:16:53;;;;;;;8.77;5.10;;;;;;;-1.68;72.88;101970.63;2107202;28;20059;-59
2022/03/08 04:17:53;;;;;;;9.40;5.67;;;;;;;-1.69;73.35;101971.47;2107144;28;20078;-60
2022/03/08 04:18:53;;;;;;;7.67;5.50;;;;;;;-1.74;73.62;101965.38;2107139;28;20028;-60
2022/03/08 04:19:54;;;;;;;9.33;6.00;;;;;;;-1.72;74.04;101963.72;2107143;28;20550;-60
2022/03/08 04:20:54;;;;;;;8.17;5.83;;;;;;;-1.69;72.75;101961.22;2107219;28;20028;-60
2022/03/08 04:21:54;;;;;;;8.00;5.60;;;;;;;-1.68;73.86;101957.84;2107024;28;20066;-60
2022/03/08 04:22:55;;;;;;;7.47;5.80;;;;;;;-1.63;72.66;101966.53;2107163;28;20020;-60
2022/03/08 04:23:55;;;;;;;11.68;6.30;;;;;;;-1.58;72.77;101961.50;2107001;28;20112;-60
2022/03/08 04:24:55;;;;;;;8.17;6.07;;;;;;;-1.53;72.38;101961.63;2107068;28;20035;-60
2022/03/08 04:25:56;;;;;;;9.33;5.40;;;;;;;-1.62;73.39;101954.56;2107071;28;20024;-59
2022/03/08 04:26:56;;;;;;;7.25;5.28;;;;;;;-1.74;73.31;101960.25;2107076;28;20028;-60
2022/03/08 04:27:57;;;;;;;6.87;5.10;;;;;;;-1.83;73.90;101966.88;2107055;28;20020;-59
2022/03/08 04:28:57;;;;;;;6.82;4.53;;;;;;;-1.91;73.75;101967.47;2107114;28;20034;-60
2022/03/08 04:29:57;;;;;;;6.33;4.90;;;;;;;-2.01;74.12;101967.22;2107025;28;20469;-60
2022/03/08 04:30:58;;;;;;;6.93;4.77;;;;;;;-2.08;75.26;101966.16;2107062;28;20427;-60
2022/03/08 04:31:58;;;;;;;8.23;6.07;;;;;;;-2.13;74.81;101962.63;2106895;28;20038;-60
2022/03/08 04:32:59;;;;;;;7.25;5.30;;;;;;;-2.15;75.18;101971.94;2107026;28;20024;-60
2022/03/08 04:33:59;;;;;;;7.80;5.23;;;;;;;-2.17;75.70;101963.34;2107041;28;20032;-60
2022/03/08 04:34:59;;;;;;;7.00;5.53;;;;;;;-2.19;75.88;101964.97;2107053;28;20055;-60
2022/03/08 04:35:59;;;;;;;6.67;4.90;;;;;;;-2.24;75.76;101964.00;2106869;28;20080;-60
2022/03/08 04:37:00;;;;;;;6.40;5.37;;;;;;;-2.27;76.15;101966.47;2107106;28;20024;-60
2022/03/08 04:38:00;;;;;;;8.13;5.47;;;;;;;-2.31;76.51;101962.06;2106328;28;20027;-59
2022/03/08 04:39:01;;;;;;;7.57;5.30;;;;;;;-2.26;76.42;101965.66;2106451;28;20028;-60
2022/03/08 04:40:02;;;;;;;12.97;5.90;;;;;;;-2.19;76.60;101967.53;2107040;28;20030;-60
2022/03/08 04:41:05;;;;;;;8.35;5.88;;;;;;;-2.13;76.11;101965.16;2107037;28;20032;-60
2022/03/08 04:42:06;;;;;;;9.13;5.88;;;;;;;-2.05;75.17;101967.97;2106260;28;20024;-61